Date,TemperatureHighF,TemperatureAvgF,TemperatureLowF,DewpointHighF,DewpointAvgF,DewpointLowF,HumidityHigh,HumidityAvg,HumidityLow,PressureMaxIn,PressureMinIn,WindSpeedMaxMPH,WindSpeedAvgMPH,GustSpeedMaxMPH,PrecipitationSumIn
2012-1-1,46,37,31,43,34,25,96,87,76,29.82,29.37,38,17,38,0.90
2012-1-2,31,26,20,25,18,9,83,70,52,30.08,29.72,25,12,25,0.04
2012-1-3,23,20,16,12,8,5,68,58,48,30.19,30.03,24,9,24,0.00
2012-1-4,38,28,20,26,18,9,77,65,57,30.05,29.74,21,10,21,0.00
2012-1-5,45,35,25,34,27,21,91,74,51,29.89,29.55,29,9,29,0.00
2012-1-6,55,46,41,37,33,31,70,62,49,29.62,29.53,26,14,26,0.00
2012-1-7,46,39,34,33,28,24,77,65,52,30.08,29.58,17,6,17,0.00
2012-1-8,41,32,23,26,21,17,79,64,44,30.25,30.08,15,5,15,0.00
2012-1-9,43,34,26,28,24,19,82,66,48,30.17,29.78,29,13,29,0.00
2012-1-10,49,39,29,35,29,25,87,69,49,29.94,29.75,20,6,20,0.00
2012-1-11,52,40,29,38,30,25,90,70,49,29.75,29.40,15,5,15,0.00
2012-1-12,40,37,24,38,34,21,98,91,71,29.41,29.21,24,6,24,0.17
2012-1-13,27,23,19,24,18,14,91,82,72,29.85,29.27,27,9,27,0.00
2012-1-14,23,19,16,16,13,8,83,75,67,30.14,29.84,13,4,13,0.00
2012-1-15,28,20,16,17,12,8,79,70,59,30.32,30.14,21,8,21,0.00
2012-1-16,46,33,19,41,26,11,93,75,62,30.15,29.66,24,13,24,0.04
2012-1-17,42,36,23,42,34,14,99,93,66,29.92,29.27,16,4,16,0.25
2012-1-18,28,22,15,16,12,7,73,65,55,30.14,29.83,0,0,0,0.00
2012-1-19,27,19,10,24,9,-4,86,64,47,30.03,29.59,30,13,30,0.01
2012-1-20,19,12,10,9,0,-4,81,60,50,30.17,29.99,8,4,8,0.00
2012-1-21,21,13,7,9,5,2,82,69,48,30.19,29.99,11,5,11,0.00
2012-1-22,36,25,11,33,19,-1,93,80,25,30.14,29.65,22,11,22,0.02
2012-1-23,49,42,32,10,3,-4,20,20,20,29.69,29.30,49,20,49,3.43
2012-1-24,33,32,30,-4,-5,-7,20,20,20,30.22,29.68,33,12,33,0.46
2012-1-25,35,31,28,24,20,-19,78,66,11,30.27,30.05,11,4,11,0.00
2012-1-26,39,33,26,33,29,21,97,84,75,30.08,29.46,11,4,11,0.15
2012-1-27,41,35,31,33,12,-13,98,43,18,29.84,29.43,18,6,18,0.11
2012-1-28,35,32,26,32,24,16,91,73,56,29.92,29.58,32,16,32,0.15
2012-1-29,33,27,23,28,22,14,90,79,65,30.09,29.77,23,10,23,0.00
2012-1-30,38,26,12,34,21,7,86,81,74,30.11,29.78,21,9,21,0.00
2012-1-31,56,49,37,48,39,30,87,70,40,29.79,29.68,33,18,34,0.02
2012-2-1,52,42,36,48,34,27,88,75,53,30.03,29.69,23,6,25,0.00
2012-2-2,42,35,29,32,29,24,89,77,63,30.30,30.02,9,3,9,0.00
2012-2-3,39,34,28,34,29,24,90,82,72,30.38,30.30,10,3,10,0.00
2012-2-4,44,35,26,29,25,20,84,69,49,30.30,30.06,12,3,12,0.00
2012-2-5,44,33,26,32,25,21,87,74,56,30.16,30.05,13,4,13,0.00
2012-2-6,47,36,28,33,28,23,90,74,50,30.09,29.92,24,11,24,0.00
2012-2-7,35,31,24,30,24,15,89,75,65,30.28,30.03,21,8,21,0.00
2012-2-8,37,27,17,20,16,12,84,64,41,30.27,30.10,15,5,15,0.00
2012-2-9,40,30,23,23,18,14,77,61,46,30.11,29.97,30,13,30,0.00
2012-2-10,35,27,11,30,21,7,86,77,69,29.97,29.75,35,14,35,0.00
2012-2-11,20,13,5,12,6,-1,81,75,70,30.09,29.88,29,12,29,0.00
2012-2-12,31,23,16,15,12,8,72,64,50,30.07,29.99,20,10,20,0.00
2012-2-13,37,28,19,19,14,10,72,58,37,30.01,29.84,21,9,21,0.00
2012-2-14,35,31,28,28,25,16,84,76,57,29.91,29.75,18,8,18,0.00
2012-2-15,46,37,32,33,29,27,87,74,58,30.07,29.91,24,11,24,0.14
2012-2-16,43,38,32,40,35,27,96,88,79,29.95,29.81,15,7,15,0.22
2012-2-17,46,37,31,30,26,20,83,67,37,30.02,29.82,16,7,16,0.00
2012-2-18,39,33,24,31,21,14,81,63,44,30.12,29.80,27,9,27,0.00
2012-2-19,31,24,19,16,14,11,78,66,51,30.13,30.05,17,6,17,0.00
2012-2-20,45,29,15,26,18,11,86,66,40,30.26,30.00,14,5,14,0.00
2012-2-21,41,36,27,38,29,18,91,76,61,30.00,29.50,35,13,35,0.09
2012-2-22,45,37,32,31,29,26,84,71,50,29.55,29.32,23,13,23,0.00
2012-2-23,46,38,30,35,29,25,89,73,52,29.53,29.32,13,5,13,0.00
2012-2-24,36,32,29,33,30,25,97,92,79,29.64,29.18,20,9,20,0.11
2012-2-25,35,30,27,28,22,18,95,74,54,30.21,29.63,20,8,20,0.01
2012-2-26,38,31,25,24,20,16,74,64,49,30.30,29.97,28,8,28,0.00
2012-2-27,41,35,28,25,23,19,70,60,47,30.36,29.94,31,14,31,1.06
2012-2-28,46,33,19,28,22,14,86,65,46,30.39,30.02,18,5,18,0.00
2012-2-29,44,38,33,42,34,23,94,85,62,30.02,29.34,23,6,23,0.53
2012-3-1,44,38,34,34,31,29,89,77,60,29.79,29.44,20,8,20,0.01
2012-3-2,51,41,34,46,35,5,95,79,63,29.78,29.00,50,10,50,3.60
2012-3-3,38,34,28,32,25,18,82,70,53,29.63,29.09,46,21,49,9.35
2012-3-4,35,28,23,22,18,16,82,67,49,29.82,29.63,10,5,10,0.00
2012-3-5,33,28,23,20,16,8,74,60,44,30.27,29.81,21,6,21,0.00
2012-3-6,59,44,30,37,26,13,68,49,41,30.26,29.89,36,16,36,0.00
2012-3-7,69,59,50,47,38,28,54,45,38,29.99,29.75,46,26,46,7.90
2012-3-8,63,46,32,55,37,21,91,72,54,30.01,29.64,46,16,46,3.15
2012-3-9,37,32,26,25,15,6,71,51,30,30.42,29.97,26,10,26,0.05
2012-3-10,51,35,26,26,13,7,47,41,32,30.44,30.09,35,11,35,0.17
2012-3-11,69,54,41,33,27,24,51,37,23,30.21,30.08,28,14,28,0.00
2012-3-12,66,56,50,59,47,29,97,73,39,30.09,29.63,35,13,35,0.70
2012-3-13,63,53,29,52,47,26,97,84,27,30.37,29.76,18,10,18,0.00
2012-3-14,82,77,58,66,62,30,70,61,34,30.04,29.90,8,6,14,0.00
2012-3-15,85,74,58,67,62,30,86,68,34,30.04,29.84,20,8,20,0.01
2012-3-16,84,65,53,66,57,23,99,79,16,30.03,29.91,16,5,16,0.02
2012-3-17,81,68,56,61,57,52,97,70,42,30.09,29.99,24,9,24,0.00
2012-3-18,81,66,54,64,57,52,96,76,52,30.03,29.95,15,7,15,0.00
2012-3-19,86,69,55,65,60,54,99,75,47,30.03,29.94,23,8,23,0.00
2012-3-20,89,73,59,65,59,56,95,66,40,30.07,29.98,23,8,23,0.00
2012-3-21,95,75,59,62,57,54,84,58,33,30.11,29.98,18,8,18,0.00
2012-3-22,86,70,59,64,58,52,97,68,43,30.07,29.97,38,7,38,0.90
2012-3-23,70,63,55,65,60,55,99,90,73,30.02,29.81,14,5,14,0.30
2012-3-24,61,56,50,60,55,50,99,98,94,29.82,29.74,13,5,13,0.05
2012-3-25,74,57,47,55,47,28,99,74,35,30.03,29.79,30,8,30,0.00
2012-3-26,47,38,31,33,21,11,70,52,32,30.32,30.03,27,14,27,0.00
2012-3-27,60,43,26,32,22,12,63,45,27,30.31,29.72,28,12,28,0.02
2012-3-28,64,57,43,51,40,30,76,55,43,29.91,29.57,36,15,36,0.31
2012-3-29,43,40,34,31,28,26,72,63,59,30.08,29.91,18,9,18,0.00
2012-3-30,38,34,28,36,31,23,98,86,72,30.03,29.71,16,8,16,0.37
2012-3-31,51,39,34,36,32,30,97,77,54,29.93,29.81,15,7,15,0.00
2012-4-1,57,46,37,46,39,31,86,77,61,29.84,29.62,18,7,18,0.00
2012-4-2,63,47,34,40,34,29,96,65,35,29.98,29.77,17,6,17,0.00
2012-4-3,67,49,37,53,40,28,87,71,58,29.97,29.75,23,5,23,0.13
2012-4-4,60,50,36,47,33,25,89,55,28,29.88,29.79,25,10,25,0.00
2012-4-5,46,40,34,29,26,21,80,57,41,30.07,29.86,25,13,25,0.00
2012-4-6,57,42,29,30,24,16,76,51,26,30.22,30.07,18,7,18,0.00
2012-4-7,71,51,29,37,27,20,83,45,21,30.25,30.03,18,4,18,0.00
2012-4-8,62,54,47,43,30,16,81,44,17,30.03,29.92,32,11,32,0.61
2012-4-9,64,49,34,42,28,14,88,50,20,29.93,29.71,29,9,29,0.08
2012-4-10,46,41,38,30,25,18,64,53,40,29.93,29.76,20,8,20,0.00
2012-4-11,56,44,34,31,27,21,82,55,30,30.11,29.91,23,8,23,0.00
2012-4-12,60,46,31,34,29,26,90,55,30,30.17,30.06,17,4,17,0.00
2012-4-13,73,53,33,43,32,27,86,49,23,30.17,30.02,21,6,21,0.00
2012-4-14,72,59,50,56,45,30,90,61,45,30.04,29.77,29,13,29,0.00
2012-4-15,78,66,57,68,61,56,99,83,70,29.81,29.65,29,12,29,0.64
2012-4-16,72,62,44,62,51,33,88,67,50,30.04,29.51,59,23,59,17.73
2012-4-17,61,47,34,35,31,27,81,56,32,30.26,30.03,18,5,18,0.00
2012-4-18,71,53,32,43,36,27,83,56,34,30.24,29.88,28,10,28,0.00
2012-4-19,78,62,52,63,50,39,91,66,46,29.90,29.75,16,7,16,0.08
2012-4-20,72,54,44,54,48,42,97,82,50,29.77,29.58,24,10,24,0.18
2012-4-21,70,44,36,52,29,18,80,57,30,29.98,29.89,28,15,28,0.19
2012-4-22,52,42,33,32,25,19,84,54,28,29.96,29.89,37,17,37,0.00
2012-4-23,59,47,36,24,16,8,53,31,13,29.89,29.54,38,15,38,0.07
2012-4-24,63,50,39,29,21,14,44,32,19,29.63,29.46,35,12,35,0.05
2012-4-25,74,55,33,48,34,24,87,50,24,29.75,29.63,24,6,24,0.02
2012-4-26,56,50,37,51,40,19,92,71,43,30.00,29.55,30,9,30,0.06
2012-4-27,58,44,30,28,21,15,70,43,22,30.15,30.00,20,6,20,0.00
2012-4-28,54,44,37,30,22,18,66,43,32,30.18,30.09,15,6,15,0.00
2012-4-29,68,48,25,30,23,17,80,42,19,30.28,30.11,17,5,17,0.00
2012-4-30,65,51,42,54,42,15,99,75,26,30.16,29.78,18,5,18,0.61
2012-5-1,63,55,49,54,50,46,99,87,60,29.99,29.82,13,4,13,0.02
2012-5-2,86,68,51,71,58,50,96,73,42,29.89,29.72,29,8,29,0.02
2012-5-3,92,75,64,72,66,57,99,75,49,29.90,29.73,34,12,34,1.32
2012-5-4,80,66,58,78,65,57,99,97,76,29.95,29.83,21,8,24,0.37
2012-5-5,71,57,51,58,51,47,99,82,54,30.04,29.91,21,10,21,0.00
2012-5-6,80,63,52,50,46,38,86,57,32,30.06,29.88,14,5,14,0.12
2012-5-7,71,59,51,66,56,47,99,89,78,29.94,29.72,13,4,13,0.40
2012-5-8,77,62,51,60,52,42,99,72,40,29.76,29.70,22,6,22,0.01
2012-5-9,67,55,47,54,47,39,86,73,51,29.79,29.69,21,5,21,0.09
2012-5-10,68,54,40,40,34,30,79,50,26,29.93,29.79,21,6,21,0.00
2012-5-11,84,64,43,46,40,35,74,46,25,30.07,29.93,21,7,21,0.00
2012-5-12,66,62,59,64,53,38,99,76,42,30.13,30.04,20,6,20,0.22
2012-5-13,74,61,51,60,49,38,99,70,31,30.17,30.03,11,4,11,0.24
2012-5-14,85,65,44,60,44,40,99,54,23,30.04,29.92,15,3,15,0.00
2012-5-15,87,69,47,56,48,41,86,52,30,29.93,29.74,24,8,24,0.05
2012-5-16,67,58,50,57,40,33,89,54,32,30.06,29.79,25,10,25,0.05
2012-5-17,75,58,36,49,38,31,90,52,27,30.15,30.04,13,3,13,0.00
2012-5-18,88,68,47,53,45,34,88,50,26,30.09,29.98,15,5,15,0.00
2012-5-19,98,76,52,58,49,34,71,42,25,30.07,30.00,17,5,17,0.00
2012-5-20,100,81,62,65,56,48,65,45,28,30.07,29.91,21,7,21,0.00
2012-5-21,76,67,58,63,57,52,93,73,49,29.97,29.91,14,5,14,0.09
2012-5-22,71,61,52,53,48,43,83,67,41,29.97,29.85,18,8,18,0.01
2012-5-23,89,67,44,62,51,42,99,62,30,29.90,29.77,15,3,15,0.00
2012-5-24,93,76,59,67,61,51,91,61,41,29.85,29.67,26,10,26,0.00
2012-5-25,88,78,66,67,58,50,70,52,34,30.06,29.72,23,9,23,0.00
2012-5-26,86,71,61,64,58,48,89,66,45,30.19,30.02,12,3,12,0.08
2012-5-27,92,73,62,68,60,54,83,67,45,30.06,29.84,34,8,34,0.04
2012-5-28,100,84,67,73,67,61,92,60,37,29.84,29.65,31,14,31,0.00
2012-5-29,87,78,65,66,55,43,78,47,26,29.74,29.62,30,10,30,0.01
2012-5-30,78,64,51,52,47,43,81,56,33,29.85,29.73,21,6,21,0.00
2012-5-31,65,54,48,50,44,40,91,71,49,29.94,29.79,18,8,18,0.24
2012-6-1,55,52,48,54,51,46,99,97,88,29.83,29.48,18,10,45,0.43
2012-6-2,75,60,48,54,47,43,88,66,36,29.65,29.55,34,14,34,0.48
2012-6-3,82,69,60,56,51,45,78,54,32,29.73,29.61,28,10,28,0.04
2012-6-4,72,64,53,55,52,49,91,66,46,29.83,29.72,22,10,22,0.00
2012-6-18,87,61,61,48,48,48,63,63,63,29.73,29.64,11,6,11,0.00
2012-6-22,90,78,62,71,58,54,83,54,33,29.92,29.72,24,5,24,0.02
2012-6-23,93,74,54,71,57,53,99,62,29,29.99,29.92,12,2,12,0.00
2012-6-24,70,70,69,60,58,56,70,67,64,29.98,29.97,4,2,4,0.00
2012-6-27,89,85,85,59,59,55,41,41,41,29.90,29.90,12,4,12,0.00
2012-9-13,89,80,66,68,64,56,97,58,45,30.16,29.89,26,11,26,0.00
2012-9-14,74,66,54,54,49,45,73,55,41,30.21,30.15,20,4,20,0.30
2012-9-15,75,58,43,57,48,42,97,72,39,30.26,30.08,12,2,12,0.00
2012-9-16,84,65,51,58,51,47,87,64,34,30.08,29.93,18,6,18,0.00
2012-9-17,82,68,54,59,54,47,81,65,43,29.95,29.62,23,7,23,0.02
2012-9-18,66,57,42,64,49,36,99,76,46,29.88,29.57,23,8,23,0.05
2012-9-19,72,55,40,50,41,37,98,64,34,30.02,29.85,24,8,24,0.00
2012-9-20,76,61,51,55,46,40,85,59,43,29.87,29.75,29,10,29,0.17
2012-9-21,73,57,47,52,46,40,98,71,35,29.85,29.68,26,7,26,0.19
2012-9-22,61,54,48,52,47,22,99,82,33,29.95,29.65,105,7,105,0.04
2012-9-24,71,61,55,65,38,36,79,44,36,30.15,29.80,35,18,35,0.43
2012-9-25,77,62,50,55,47,37,91,59,44,29.85,29.77,24,11,24,0.00
2012-9-26,72,60,52,59,54,47,99,82,47,30.07,29.79,13,4,13,0.00
2012-9-27,72,56,47,51,48,45,99,75,45,30.17,30.07,16,4,16,0.04
2012-9-28,74,59,47,55,48,44,99,72,44,30.09,29.99,14,2,14,0.00
2012-9-29,74,57,42,53,45,41,99,70,39,30.02,29.85,15,4,15,0.00
2012-9-30,66,54,46,53,47,43,99,79,51,29.90,29.85,22,6,22,0.00
2012-10-1,74,55,38,61,47,38,99,78,43,29.88,29.77,8,2,8,0.01
2012-10-2,70,60,52,56,52,49,98,76,53,29.85,29.75,18,4,18,0.04
2012-10-3,73,62,56,68,58,53,99,87,68,29.97,29.83,17,5,17,0.01
2012-10-4,80,67,55,62,56,53,95,72,44,30.00,29.89,26,11,26,0.07
2012-10-5,63,54,47,62,47,34,94,79,53,29.99,29.85,26,11,26,0.00
2012-10-6,52,46,39,44,39,35,95,77,56,29.96,29.83,24,9,24,0.00
2012-10-8,59,51,41,37,30,27,61,45,36,30.08,29.98,24,10,24,0.00
2012-10-9,67,52,38,40,35,28,72,54,37,30.01,29.69,31,13,31,0.00
2012-10-10,55,44,34,44,36,26,96,73,48,30.05,29.67,24,9,24,0.21
2012-10-11,64,47,32,43,34,27,92,66,37,30.09,29.90,41,14,42,0.65
2012-10-12,52,42,33,40,32,25,92,71,38,30.35,30.09,13,4,13,0.05
2012-10-13,62,44,33,62,41,28,99,90,76,30.27,29.76,25,8,25,0.78
2012-10-14,72,66,58,67,64,58,99,93,75,29.77,29.32,38,16,38,0.21
2012-10-15,50,48,46,47,44,40,94,87,81,29.85,29.66,21,8,21,0.02
2012-10-16,63,50,34,46,40,32,99,70,47,29.89,29.62,18,6,18,0.00
2012-10-17,77,63,52,58,51,43,97,68,40,29.62,29.45,36,15,36,0.15
2012-10-18,61,56,48,59,48,37,99,76,45,29.57,29.26,33,13,33,0.37
2012-10-19,59,50,44,48,43,38,97,78,61,29.55,29.44,26,7,26,0.06
2012-10-20,58,50,46,49,45,39,99,87,57,29.81,29.48,21,6,21,0.14
2012-10-21,65,50,38,54,43,37,99,78,48,29.99,29.81,21,6,21,0.01
2012-10-22,79,60,46,64,53,42,99,79,59,29.99,29.86,18,6,18,0.27
2012-10-23,68,63,61,68,63,61,99,99,94,29.90,29.79,13,4,13,0.33
2012-10-24,83,69,60,70,64,60,99,86,61,29.93,29.85,22,7,22,0.02
2012-10-25,80,69,60,64,60,57,92,75,54,29.88,29.71,31,14,31,0.01
2012-10-26,70,50,42,60,41,33,96,75,55,30.15,29.72,26,8,26,0.04
2012-10-27,52,43,35,40,34,31,87,70,50,30.15,30.06,22,9,22,0.00
2012-10-28,48,41,35,39,32,26,87,69,49,30.14,30.05,32,15,32,0.00
2012-10-29,44,41,38,30,27,19,66,58,45,30.06,29.69,45,21,45,0.01
2012-10-30,40,36,34,39,34,24,99,93,53,29.70,29.43,38,20,45,0.08
2012-10-31,43,39,35,41,37,35,99,95,82,29.58,29.46,20,8,21,0.02
2012-11-1,42,41,37,37,33,31,89,73,67,29.70,29.57,21,7,21,0.04
2012-11-2,41,41,41,31,31,31,67,67,67,29.99,29.69,6,6,6,0.00
2012-11-3,41,41,41,31,31,31,67,67,67,30.10,29.98,6,6,6,0.00
2012-11-4,41,41,41,31,31,31,67,67,67,30.12,30.06,6,6,6,0.00
2012-11-5,41,41,41,31,31,31,67,67,67,30.12,30.06,6,6,6,0.00
2012-11-6,41,41,41,31,31,31,67,67,67,30.06,29.88,6,6,6,0.00
2012-11-7,68,40,29,41,31,25,87,69,39,30.09,29.88,10,5,10,0.00
2012-11-8,52,34,23,36,27,22,99,79,52,30.13,30.02,10,2,11,0.00
2012-11-9,59,46,32,43,37,28,90,73,52,30.08,29.98,16,6,16,0.00
2012-11-10,65,56,49,51,48,41,84,73,60,30.02,29.88,20,8,20,0.00
2012-11-11,71,62,53,53,47,39,73,58,43,29.98,29.81,35,19,35,0.00
2012-11-12,63,45,33,52,38,23,97,77,46,30.14,29.78,40,17,40,0.32
2012-11-13,36,31,22,28,20,15,80,66,49,30.43,30.14,20,5,20,0.00
2012-11-14,45,31,18,29,22,15,93,71,49,30.48,30.32,13,3,13,0.00
2012-11-15,48,35,26,35,28,23,95,77,56,30.34,30.23,10,2,10,0.00
2012-11-16,55,37,24,43,32,22,97,81,52,30.40,30.26,11,2,11,0.00
2012-11-17,57,41,29,41,33,28,98,74,44,30.50,30.40,13,4,13,0.00
2012-11-18,58,44,36,47,36,31,99,76,41,30.45,30.30,13,5,13,0.00
2012-11-19,59,44,30,46,35,29,99,73,43,30.31,30.07,11,4,11,0.00
2012-11-20,60,48,41,45,39,30,88,71,53,30.08,29.98,9,3,9,0.00
2012-11-21,59,46,32,48,41,32,99,82,47,30.14,30.04,14,5,14,0.00
2012-11-22,64,52,43,47,41,28,99,71,28,30.05,29.67,31,15,31,0.02
2012-11-23,56,40,32,51,33,20,90,74,58,29.92,29.59,35,18,35,0.05
2012-11-24,34,31,29,20,18,16,66,59,49,30.01,29.91,18,8,21,0.00
2012-11-25,35,31,27,29,24,19,83,76,66,29.92,29.73,21,9,21,0.00
2012-11-26,36,32,29,26,20,16,79,62,47,30.19,29.90,13,4,13,0.00
2012-11-27,38,28,20,21,16,12,76,61,44,30.26,30.11,17,4,17,0.00
2012-11-28,42,32,25,26,20,17,76,63,47,30.19,30.08,23,9,23,0.00
2012-11-29,50,38,28,30,26,21,76,62,45,30.16,30.06,23,10,23,0.00
2012-11-30,43,38,33,39,32,26,90,81,68,30.15,30.03,15,6,15,0.00
2012-12-1,58,43,33,50,38,30,97,83,57,30.14,29.85,28,8,28,0.00
2012-12-2,58,54,44,57,50,40,99,87,69,30.00,29.79,25,9,27,0.30
2012-12-3,63,53,38,63,52,37,99,97,87,30.02,29.77,31,10,31,0.00
2012-12-4,64,52,39,61,47,29,99,82,62,30.03,29.76,39,12,39,0.21
2012-12-5,39,31,23,29,21,17,83,66,56,30.30,30.03,20,6,20,0.00
2012-12-6,40,32,24,32,26,20,88,78,63,30.24,29.84,21,8,21,0.00
2012-12-7,43,40,37,39,36,32,95,86,81,29.85,29.78,13,5,13,0.12
2012-12-8,42,35,32,38,32,28,92,88,85,30.07,29.75,17,8,17,0.17
2012-12-9,35,33,32,30,28,26,90,83,74,30.08,29.56,15,4,15,0.31
2012-12-10,38,34,28,38,30,20,99,89,70,29.78,29.50,20,5,20,0.02
2012-12-11,49,32,19,44,24,14,91,75,66,29.93,29.77,54,10,54,0.00
2012-12-25,31,28,27,20,19,18,75,69,63,30.21,30.15,30,8,30,0.00
2012-12-26,38,28,25,28,24,10,98,84,30,30.16,29.78,114,19,114,0.02
2012-12-27,29,24,15,27,22,12,96,92,85,30.04,29.79,20,8,21,0.00
2012-12-28,92,24,9,87,22,6,95,89,85,30.06,29.82,29,3,29,0.00
2012-12-29,29,25,20,27,24,17,97,93,85,29.94,29.72,16,6,16,0.00
2012-12-30,37,25,18,26,21,13,94,85,66,30.15,29.95,24,9,24,0.00
2012-12-31,36,29,19,29,23,15,86,79,66,30.05,29.78,25,12,25,0.00
2013-1-1,41,22,17,31,12,7,78,63,48,30.04,29.90,15,5,15,0.00